Terminal Aerodrome Forecast
Issued by NWS

Home | Current Version | Previous Version | Text Only | Print | Product List | Glossary On
Versions: 1 2 3 4 5 6 7 8 9 10 11 12 13 14 15 16 17
000
FTUS43 KJKL 271739
TAFSME
TAF
KSME 271739Z 2718/2818 23005KT P6SM VCTS SCT025CB BKN040
      TEMPO 2721/2723 3SM TSRA OVC040CB
     FM280100 VRB03KT P6SM SCT015 BKN250
     FM280700 00000KT P6SM VCTS BKN025CB
     FM281000 20004KT 3SM TSRA BR BKN040CB
     FM281400 21004KT 6SM SHRA OVC040=

USA.gov is the U.S. government's official web portal to all federal, state and local government web resources and services.